sensor_id;sensor_type;location;lat;lon;timestamp;P1;durP1;ratioP1;P2;durP2;ratioP2
75628;SDS011;64213;46.452;16.994;2023-06-05T00:01:09;11.10;;;4.80;;
75628;SDS011;64213;46.452;16.994;2023-06-05T00:04:11;12.15;;;4.93;;
75628;SDS011;64213;46.452;16.994;2023-06-05T00:07:14;12.75;;;5.40;;
75628;SDS011;64213;46.452;16.994;2023-06-05T00:10:16;12.07;;;5.53;;
75628;SDS011;64213;46.452;16.994;2023-06-05T00:13:18;12.60;;;4.87;;
75628;SDS011;64213;46.452;16.994;2023-06-05T00:16:20;11.57;;;5.07;;
75628;SDS011;64213;46.452;16.994;2023-06-05T00:19:23;11.45;;;4.78;;
75628;SDS011;64213;46.452;16.994;2023-06-05T00:22:26;11.55;;;5.72;;
75628;SDS011;64213;46.452;16.994;2023-06-05T00:25:38;11.25;;;5.10;;
75628;SDS011;64213;46.452;16.994;2023-06-05T00:28:40;11.97;;;4.97;;
75628;SDS011;64213;46.452;16.994;2023-06-05T00:31:43;11.52;;;5.20;;
75628;SDS011;64213;46.452;16.994;2023-06-05T00:34:45;12.32;;;5.60;;
75628;SDS011;64213;46.452;16.994;2023-06-05T00:37:48;11.65;;;5.32;;
75628;SDS011;64213;46.452;16.994;2023-06-05T00:40:50;13.25;;;5.53;;
75628;SDS011;64213;46.452;16.994;2023-06-05T00:43:53;14.23;;;5.53;;
75628;SDS011;64213;46.452;16.994;2023-06-05T00:46:55;13.35;;;5.35;;
75628;SDS011;64213;46.452;16.994;2023-06-05T00:49:57;12.00;;;5.25;;
75628;SDS011;64213;46.452;16.994;2023-06-05T00:53:01;14.48;;;5.43;;
75628;SDS011;64213;46.452;16.994;2023-06-05T00:56:04;15.55;;;5.70;;
75628;SDS011;64213;46.452;16.994;2023-06-05T00:59:07;11.60;;;5.50;;
75628;SDS011;64213;46.452;16.994;2023-06-05T01:02:09;12.32;;;5.35;;
75628;SDS011;64213;46.452;16.994;2023-06-05T01:05:11;13.43;;;5.78;;
75628;SDS011;64213;46.452;16.994;2023-06-05T01:08:14;13.38;;;5.47;;
75628;SDS011;64213;46.452;16.994;2023-06-05T01:14:37;15.03;;;5.47;;
75628;SDS011;64213;46.452;16.994;2023-06-05T01:17:42;13.15;;;5.30;;
75628;SDS011;64213;46.452;16.994;2023-06-05T01:20:47;15.50;;;6.05;;
75628;SDS011;64213;46.452;16.994;2023-06-05T01:23:49;13.35;;;6.05;;
75628;SDS011;64213;46.452;16.994;2023-06-05T01:33:24;15.05;;;6.28;;
75628;SDS011;64213;46.452;16.994;2023-06-05T01:36:32;14.55;;;6.22;;
75628;SDS011;64213;46.452;16.994;2023-06-05T01:39:35;13.77;;;6.20;;
75628;SDS011;64213;46.452;16.994;2023-06-05T01:42:39;13.80;;;6.35;;
75628;SDS011;64213;46.452;16.994;2023-06-05T01:45:43;13.17;;;6.13;;
75628;SDS011;64213;46.452;16.994;2023-06-05T01:48:46;12.25;;;5.75;;
75628;SDS011;64213;46.452;16.994;2023-06-05T01:51:48;13.62;;;6.15;;
75628;SDS011;64213;46.452;16.994;2023-06-05T01:54:51;12.77;;;5.90;;
75628;SDS011;64213;46.452;16.994;2023-06-05T01:57:54;14.05;;;6.45;;
75628;SDS011;64213;46.452;16.994;2023-06-05T02:00:56;14.93;;;6.50;;
75628;SDS011;64213;46.452;16.994;2023-06-05T02:03:59;15.45;;;6.37;;
75628;SDS011;64213;46.452;16.994;2023-06-05T02:07:01;13.82;;;6.30;;
75628;SDS011;64213;46.452;16.994;2023-06-05T02:10:07;13.98;;;5.95;;
75628;SDS011;64213;46.452;16.994;2023-06-05T02:13:10;15.93;;;5.95;;
75628;SDS011;64213;46.452;16.994;2023-06-05T02:16:13;12.73;;;5.53;;
75628;SDS011;64213;46.452;16.994;2023-06-05T02:19:15;14.70;;;6.20;;
75628;SDS011;64213;46.452;16.994;2023-06-05T02:22:18;13.48;;;6.28;;
75628;SDS011;64213;46.452;16.994;2023-06-05T02:29:15;16.08;;;6.05;;
75628;SDS011;64213;46.452;16.994;2023-06-05T02:32:18;11.97;;;6.00;;
75628;SDS011;64213;46.452;16.994;2023-06-05T02:35:20;14.05;;;6.45;;
75628;SDS011;64213;46.452;16.994;2023-06-05T02:38:22;15.27;;;6.70;;
75628;SDS011;64213;46.452;16.994;2023-06-05T02:41:25;13.55;;;6.12;;
75628;SDS011;64213;46.452;16.994;2023-06-05T02:44:28;16.85;;;6.55;;
75628;SDS011;64213;46.452;16.994;2023-06-05T02:47:31;15.27;;;6.70;;
75628;SDS011;64213;46.452;16.994;2023-06-05T02:50:33;16.90;;;7.25;;
75628;SDS011;64213;46.452;16.994;2023-06-05T02:53:36;15.15;;;7.15;;
75628;SDS011;64213;46.452;16.994;2023-06-05T02:56:39;13.82;;;7.47;;
75628;SDS011;64213;46.452;16.994;2023-06-05T02:59:42;16.45;;;7.78;;
75628;SDS011;64213;46.452;16.994;2023-06-05T03:02:44;16.30;;;6.87;;
75628;SDS011;64213;46.452;16.994;2023-06-05T03:05:52;14.57;;;6.45;;
75628;SDS011;64213;46.452;16.994;2023-06-05T03:08:55;16.83;;;7.95;;
75628;SDS011;64213;46.452;16.994;2023-06-05T03:11:58;15.20;;;7.15;;
75628;SDS011;64213;46.452;16.994;2023-06-05T03:15:01;16.50;;;7.90;;
75628;SDS011;64213;46.452;16.994;2023-06-05T03:18:03;15.97;;;7.17;;
75628;SDS011;64213;46.452;16.994;2023-06-05T03:21:05;15.88;;;7.62;;
75628;SDS011;64213;46.452;16.994;2023-06-05T03:24:08;16.27;;;8.43;;
75628;SDS011;64213;46.452;16.994;2023-06-05T03:27:12;17.20;;;8.40;;
75628;SDS011;64213;46.452;16.994;2023-06-05T03:30:14;15.57;;;7.75;;
75628;SDS011;64213;46.452;16.994;2023-06-05T03:33:18;15.93;;;8.00;;
75628;SDS011;64213;46.452;16.994;2023-06-05T03:36:21;15.10;;;7.90;;
75628;SDS011;64213;46.452;16.994;2023-06-05T03:39:24;16.92;;;7.25;;
75628;SDS011;64213;46.452;16.994;2023-06-05T03:42:27;15.65;;;8.18;;
75628;SDS011;64213;46.452;16.994;2023-06-05T03:45:29;16.10;;;8.10;;
75628;SDS011;64213;46.452;16.994;2023-06-05T03:48:31;16.43;;;7.97;;
75628;SDS011;64213;46.452;16.994;2023-06-05T03:51:34;17.73;;;7.47;;
75628;SDS011;64213;46.452;16.994;2023-06-05T03:54:37;15.20;;;7.50;;
75628;SDS011;64213;46.452;16.994;2023-06-05T03:57:40;14.70;;;7.70;;
75628;SDS011;64213;46.452;16.994;2023-06-05T04:00:43;13.82;;;7.93;;
75628;SDS011;64213;46.452;16.994;2023-06-05T04:03:46;17.40;;;7.07;;
75628;SDS011;64213;46.452;16.994;2023-06-05T04:06:49;14.87;;;7.20;;
75628;SDS011;64213;46.452;16.994;2023-06-05T04:09:51;14.00;;;7.18;;
75628;SDS011;64213;46.452;16.994;2023-06-05T04:12:54;15.18;;;7.65;;
75628;SDS011;64213;46.452;16.994;2023-06-05T04:15:56;19.37;;;8.00;;
75628;SDS011;64213;46.452;16.994;2023-06-05T04:18:59;17.67;;;8.67;;
75628;SDS011;64213;46.452;16.994;2023-06-05T04:22:01;29.98;;;11.95;;
75628;SDS011;64213;46.452;16.994;2023-06-05T04:25:04;27.60;;;12.00;;
75628;SDS011;64213;46.452;16.994;2023-06-05T04:28:06;26.23;;;9.82;;
75628;SDS011;64213;46.452;16.994;2023-06-05T04:31:09;17.98;;;9.57;;
75628;SDS011;64213;46.452;16.994;2023-06-05T04:34:12;15.23;;;7.90;;
75628;SDS011;64213;46.452;16.994;2023-06-05T04:37:15;16.62;;;7.90;;
75628;SDS011;64213;46.452;16.994;2023-06-05T04:40:17;17.05;;;7.82;;
75628;SDS011;64213;46.452;16.994;2023-06-05T04:43:21;17.83;;;7.57;;
75628;SDS011;64213;46.452;16.994;2023-06-05T04:46:24;17.08;;;8.27;;
75628;SDS011;64213;46.452;16.994;2023-06-05T04:49:27;14.97;;;7.50;;
75628;SDS011;64213;46.452;16.994;2023-06-05T04:52:30;14.40;;;7.72;;
75628;SDS011;64213;46.452;16.994;2023-06-05T04:55:33;18.98;;;10.13;;
75628;SDS011;64213;46.452;16.994;2023-06-05T04:58:35;14.32;;;6.82;;
75628;SDS011;64213;46.452;16.994;2023-06-05T05:01:37;15.10;;;7.30;;
75628;SDS011;64213;46.452;16.994;2023-06-05T05:04:42;14.60;;;7.03;;
75628;SDS011;64213;46.452;16.994;2023-06-05T05:07:44;16.10;;;7.32;;
75628;SDS011;64213;46.452;16.994;2023-06-05T05:10:46;16.33;;;8.05;;
75628;SDS011;64213;46.452;16.994;2023-06-05T05:13:48;17.00;;;7.90;;
75628;SDS011;64213;46.452;16.994;2023-06-05T05:16:51;17.20;;;7.45;;
75628;SDS011;64213;46.452;16.994;2023-06-05T05:19:53;16.47;;;7.57;;
75628;SDS011;64213;46.452;16.994;2023-06-05T05:22:55;17.33;;;6.87;;
75628;SDS011;64213;46.452;16.994;2023-06-05T05:26:00;14.07;;;7.47;;
75628;SDS011;64213;46.452;16.994;2023-06-05T05:29:03;13.82;;;6.97;;
75628;SDS011;64213;46.452;16.994;2023-06-05T05:32:05;18.48;;;7.75;;
75628;SDS011;64213;46.452;16.994;2023-06-05T05:35:08;14.93;;;5.93;;
75628;SDS011;64213;46.452;16.994;2023-06-05T05:38:10;12.32;;;5.70;;
75628;SDS011;64213;46.452;16.994;2023-06-05T05:41:12;14.38;;;6.18;;
75628;SDS011;64213;46.452;16.994;2023-06-05T05:44:15;11.90;;;5.50;;
75628;SDS011;64213;46.452;16.994;2023-06-05T05:47:17;10.38;;;4.75;;
75628;SDS011;64213;46.452;16.994;2023-06-05T05:50:19;14.40;;;4.80;;
75628;SDS011;64213;46.452;16.994;2023-06-05T05:53:21;13.27;;;5.30;;
75628;SDS011;64213;46.452;16.994;2023-06-05T05:56:24;11.52;;;5.12;;
75628;SDS011;64213;46.452;16.994;2023-06-05T05:59:26;10.52;;;4.85;;
75628;SDS011;64213;46.452;16.994;2023-06-05T06:02:28;12.73;;;5.25;;
75628;SDS011;64213;46.452;16.994;2023-06-05T06:05:31;12.00;;;4.90;;
75628;SDS011;64213;46.452;16.994;2023-06-05T06:08:33;11.75;;;4.93;;
75628;SDS011;64213;46.452;16.994;2023-06-05T06:11:36;10.90;;;4.93;;
75628;SDS011;64213;46.452;16.994;2023-06-05T06:14:39;11.38;;;5.40;;
75628;SDS011;64213;46.452;16.994;2023-06-05T06:17:41;13.90;;;5.40;;
75628;SDS011;64213;46.452;16.994;2023-06-05T06:20:43;14.27;;;5.10;;
75628;SDS011;64213;46.452;16.994;2023-06-05T06:23:46;13.60;;;5.30;;
75628;SDS011;64213;46.452;16.994;2023-06-05T06:26:49;12.40;;;5.35;;
75628;SDS011;64213;46.452;16.994;2023-06-05T06:29:51;12.80;;;5.10;;
75628;SDS011;64213;46.452;16.994;2023-06-05T06:32:57;12.77;;;5.80;;
75628;SDS011;64213;46.452;16.994;2023-06-05T06:36:02;11.23;;;5.30;;
75628;SDS011;64213;46.452;16.994;2023-06-05T06:39:04;13.90;;;5.57;;
75628;SDS011;64213;46.452;16.994;2023-06-05T06:42:08;11.50;;;5.40;;
75628;SDS011;64213;46.452;16.994;2023-06-05T06:45:12;17.37;;;5.68;;
75628;SDS011;64213;46.452;16.994;2023-06-05T06:48:14;11.02;;;5.47;;
75628;SDS011;64213;46.452;16.994;2023-06-05T06:51:16;10.63;;;4.73;;
75628;SDS011;64213;46.452;16.994;2023-06-05T06:54:18;15.05;;;5.30;;
75628;SDS011;64213;46.452;16.994;2023-06-05T06:57:20;12.15;;;5.32;;
75628;SDS011;64213;46.452;16.994;2023-06-05T07:00:23;11.27;;;5.68;;
75628;SDS011;64213;46.452;16.994;2023-06-05T07:03:25;11.85;;;5.30;;
75628;SDS011;64213;46.452;16.994;2023-06-05T07:06:27;10.77;;;4.80;;
75628;SDS011;64213;46.452;16.994;2023-06-05T07:09:29;12.65;;;5.00;;
75628;SDS011;64213;46.452;16.994;2023-06-05T07:12:31;12.07;;;5.20;;
75628;SDS011;64213;46.452;16.994;2023-06-05T07:15:34;12.45;;;5.57;;
75628;SDS011;64213;46.452;16.994;2023-06-05T07:18:36;11.88;;;4.90;;
75628;SDS011;64213;46.452;16.994;2023-06-05T07:21:39;11.13;;;4.77;;
75628;SDS011;64213;46.452;16.994;2023-06-05T07:24:41;13.10;;;5.12;;
75628;SDS011;64213;46.452;16.994;2023-06-05T07:27:44;12.63;;;5.47;;
75628;SDS011;64213;46.452;16.994;2023-06-05T07:30:47;11.73;;;5.03;;
75628;SDS011;64213;46.452;16.994;2023-06-05T07:33:49;11.35;;;5.60;;
75628;SDS011;64213;46.452;16.994;2023-06-05T07:36:53;12.13;;;4.80;;
75628;SDS011;64213;46.452;16.994;2023-06-05T07:39:56;12.43;;;4.97;;
75628;SDS011;64213;46.452;16.994;2023-06-05T07:42:59;11.45;;;4.90;;
75628;SDS011;64213;46.452;16.994;2023-06-05T07:46:01;11.15;;;4.82;;
75628;SDS011;64213;46.452;16.994;2023-06-05T07:49:03;12.40;;;4.97;;
75628;SDS011;64213;46.452;16.994;2023-06-05T07:52:05;11.23;;;4.70;;
75628;SDS011;64213;46.452;16.994;2023-06-05T07:55:07;11.82;;;5.10;;
75628;SDS011;64213;46.452;16.994;2023-06-05T07:58:10;12.93;;;5.18;;
75628;SDS011;64213;46.452;16.994;2023-06-05T08:01:12;12.20;;;5.37;;
75628;SDS011;64213;46.452;16.994;2023-06-05T08:04:17;9.98;;;5.05;;
75628;SDS011;64213;46.452;16.994;2023-06-05T08:07:21;13.77;;;5.67;;
75628;SDS011;64213;46.452;16.994;2023-06-05T08:10:23;9.23;;;4.60;;
75628;SDS011;64213;46.452;16.994;2023-06-05T08:13:26;13.15;;;5.53;;
75628;SDS011;64213;46.452;16.994;2023-06-05T08:16:28;11.35;;;5.05;;
75628;SDS011;64213;46.452;16.994;2023-06-05T08:19:32;11.48;;;5.15;;
75628;SDS011;64213;46.452;16.994;2023-06-05T08:25:56;14.02;;;5.32;;
75628;SDS011;64213;46.452;16.994;2023-06-05T08:28:59;13.05;;;5.20;;
75628;SDS011;64213;46.452;16.994;2023-06-05T08:32:05;18.17;;;6.07;;
75628;SDS011;64213;46.452;16.994;2023-06-05T08:39:06;12.30;;;5.53;;
75628;SDS011;64213;46.452;16.994;2023-06-05T08:42:08;13.82;;;6.05;;
75628;SDS011;64213;46.452;16.994;2023-06-05T08:45:12;13.00;;;5.28;;
75628;SDS011;64213;46.452;16.994;2023-06-05T08:48:14;11.82;;;5.82;;
75628;SDS011;64213;46.452;16.994;2023-06-05T08:51:19;11.73;;;6.03;;
75628;SDS011;64213;46.452;16.994;2023-06-05T08:54:21;13.00;;;5.70;;
75628;SDS011;64213;46.452;16.994;2023-06-05T08:57:23;11.10;;;5.10;;
75628;SDS011;64213;46.452;16.994;2023-06-05T09:00:26;11.50;;;5.85;;
75628;SDS011;64213;46.452;16.994;2023-06-05T09:03:28;13.45;;;6.10;;
75628;SDS011;64213;46.452;16.994;2023-06-05T09:06:31;15.27;;;5.95;;
75628;SDS011;64213;46.452;16.994;2023-06-05T09:09:34;12.10;;;5.70;;
75628;SDS011;64213;46.452;16.994;2023-06-05T09:12:51;11.52;;;5.50;;
75628;SDS011;64213;46.452;16.994;2023-06-05T09:15:57;12.50;;;5.82;;
75628;SDS011;64213;46.452;16.994;2023-06-05T09:19:00;11.68;;;5.55;;
75628;SDS011;64213;46.452;16.994;2023-06-05T09:22:05;14.55;;;5.80;;
75628;SDS011;64213;46.452;16.994;2023-06-05T09:25:08;13.77;;;5.33;;
75628;SDS011;64213;46.452;16.994;2023-06-05T09:28:10;11.25;;;5.03;;
75628;SDS011;64213;46.452;16.994;2023-06-05T09:31:13;12.05;;;5.72;;
75628;SDS011;64213;46.452;16.994;2023-06-05T09:34:22;10.85;;;5.30;;
75628;SDS011;64213;46.452;16.994;2023-06-05T09:37:35;10.90;;;5.37;;
75628;SDS011;64213;46.452;16.994;2023-06-05T09:40:39;11.27;;;5.30;;
75628;SDS011;64213;46.452;16.994;2023-06-05T09:43:42;12.02;;;5.22;;
75628;SDS011;64213;46.452;16.994;2023-06-05T09:50:08;12.13;;;5.68;;
75628;SDS011;64213;46.452;16.994;2023-06-05T09:53:23;12.02;;;5.53;;
75628;SDS011;64213;46.452;16.994;2023-06-05T09:56:25;10.83;;;5.60;;
75628;SDS011;64213;46.452;16.994;2023-06-05T09:59:29;10.82;;;4.68;;
75628;SDS011;64213;46.452;16.994;2023-06-05T10:02:33;11.38;;;5.65;;
75628;SDS011;64213;46.452;16.994;2023-06-05T10:05:37;14.23;;;5.10;;
75628;SDS011;64213;46.452;16.994;2023-06-05T10:08:42;10.55;;;4.80;;
75628;SDS011;64213;46.452;16.994;2023-06-05T10:11:47;13.33;;;4.93;;
75628;SDS011;64213;46.452;16.994;2023-06-05T10:14:50;10.63;;;5.43;;
75628;SDS011;64213;46.452;16.994;2023-06-05T10:17:54;10.40;;;5.78;;
75628;SDS011;64213;46.452;16.994;2023-06-05T10:20:58;9.50;;;4.57;;
75628;SDS011;64213;46.452;16.994;2023-06-05T10:24:05;11.95;;;5.03;;
75628;SDS011;64213;46.452;16.994;2023-06-05T10:27:16;10.27;;;4.60;;
75628;SDS011;64213;46.452;16.994;2023-06-05T10:33:31;11.38;;;4.70;;
75628;SDS011;64213;46.452;16.994;2023-06-05T10:40:10;10.05;;;4.70;;
75628;SDS011;64213;46.452;16.994;2023-06-05T10:46:30;13.02;;;4.72;;
75628;SDS011;64213;46.452;16.994;2023-06-05T10:49:34;9.63;;;4.60;;
75628;SDS011;64213;46.452;16.994;2023-06-05T10:52:38;9.70;;;4.82;;
75628;SDS011;64213;46.452;16.994;2023-06-05T10:55:40;10.32;;;5.12;;
75628;SDS011;64213;46.452;16.994;2023-06-05T11:02:21;11.00;;;4.65;;
75628;SDS011;64213;46.452;16.994;2023-06-05T11:05:24;11.57;;;5.37;;
75628;SDS011;64213;46.452;16.994;2023-06-05T11:08:27;11.00;;;4.62;;
75628;SDS011;64213;46.452;16.994;2023-06-05T11:11:29;11.07;;;4.72;;
75628;SDS011;64213;46.452;16.994;2023-06-05T11:15:02;9.57;;;4.40;;
75628;SDS011;64213;46.452;16.994;2023-06-05T11:28:36;9.98;;;4.72;;
75628;SDS011;64213;46.452;16.994;2023-06-05T11:31:40;11.77;;;4.83;;
75628;SDS011;64213;46.452;16.994;2023-06-05T11:34:47;9.60;;;4.35;;
75628;SDS011;64213;46.452;16.994;2023-06-05T11:37:49;10.50;;;5.00;;
75628;SDS011;64213;46.452;16.994;2023-06-05T11:41:10;8.73;;;3.67;;
75628;SDS011;64213;46.452;16.994;2023-06-05T11:44:29;9.95;;;4.50;;
75628;SDS011;64213;46.452;16.994;2023-06-05T11:47:33;9.17;;;4.23;;
75628;SDS011;64213;46.452;16.994;2023-06-05T11:50:36;9.45;;;4.62;;
75628;SDS011;64213;46.452;16.994;2023-06-05T11:53:43;10.50;;;4.25;;
75628;SDS011;64213;46.452;16.994;2023-06-05T11:56:50;12.23;;;4.25;;
75628;SDS011;64213;46.452;16.994;2023-06-05T12:07:06;15.32;;;6.70;;
75628;SDS011;64213;46.452;16.994;2023-06-05T12:10:09;17.67;;;7.82;;
75628;SDS011;64213;46.452;16.994;2023-06-05T12:13:12;16.95;;;7.75;;
75628;SDS011;64213;46.452;16.994;2023-06-05T12:16:15;19.20;;;9.00;;
75628;SDS011;64213;46.452;16.994;2023-06-05T12:19:18;18.13;;;9.03;;
75628;SDS011;64213;46.452;16.994;2023-06-05T12:22:21;16.02;;;9.85;;
75628;SDS011;64213;46.452;16.994;2023-06-05T12:25:23;18.55;;;9.95;;
75628;SDS011;64213;46.452;16.994;2023-06-05T12:28:26;17.27;;;9.55;;
75628;SDS011;64213;46.452;16.994;2023-06-05T12:31:35;19.10;;;10.05;;
75628;SDS011;64213;46.452;16.994;2023-06-05T12:34:42;18.60;;;9.93;;
75628;SDS011;64213;46.452;16.994;2023-06-05T12:38:08;16.77;;;9.77;;
75628;SDS011;64213;46.452;16.994;2023-06-05T12:41:10;16.42;;;9.70;;
75628;SDS011;64213;46.452;16.994;2023-06-05T12:44:14;18.25;;;9.77;;
75628;SDS011;64213;46.452;16.994;2023-06-05T12:47:16;15.13;;;9.50;;
75628;SDS011;64213;46.452;16.994;2023-06-05T12:50:19;16.37;;;9.23;;
75628;SDS011;64213;46.452;16.994;2023-06-05T12:53:21;16.75;;;9.85;;
75628;SDS011;64213;46.452;16.994;2023-06-05T12:56:24;16.25;;;9.85;;
75628;SDS011;64213;46.452;16.994;2023-06-05T12:59:28;17.58;;;9.43;;
75628;SDS011;64213;46.452;16.994;2023-06-05T13:02:33;17.37;;;9.25;;
75628;SDS011;64213;46.452;16.994;2023-06-05T13:05:38;16.10;;;9.17;;
75628;SDS011;64213;46.452;16.994;2023-06-05T13:15:59;20.90;;;10.38;;
75628;SDS011;64213;46.452;16.994;2023-06-05T13:19:06;16.20;;;10.00;;
75628;SDS011;64213;46.452;16.994;2023-06-05T13:22:09;17.60;;;9.53;;
75628;SDS011;64213;46.452;16.994;2023-06-05T13:25:11;17.33;;;9.20;;
75628;SDS011;64213;46.452;16.994;2023-06-05T13:28:14;18.23;;;9.57;;
75628;SDS011;64213;46.452;16.994;2023-06-05T13:31:16;16.15;;;8.55;;
75628;SDS011;64213;46.452;16.994;2023-06-05T13:34:19;20.30;;;12.48;;
75628;SDS011;64213;46.452;16.994;2023-06-05T13:37:21;20.83;;;11.50;;
75628;SDS011;64213;46.452;16.994;2023-06-05T13:40:25;14.43;;;9.02;;
75628;SDS011;64213;46.452;16.994;2023-06-05T13:43:28;17.65;;;10.13;;
75628;SDS011;64213;46.452;16.994;2023-06-05T13:46:30;14.80;;;8.77;;
75628;SDS011;64213;46.452;16.994;2023-06-05T14:00:36;13.77;;;7.25;;
75628;SDS011;64213;46.452;16.994;2023-06-05T14:14:58;12.65;;;6.87;;
75628;SDS011;64213;46.452;16.994;2023-06-05T14:18:02;12.52;;;7.05;;
75628;SDS011;64213;46.452;16.994;2023-06-05T14:21:05;12.80;;;6.57;;
75628;SDS011;64213;46.452;16.994;2023-06-05T14:24:09;12.50;;;6.97;;
75628;SDS011;64213;46.452;16.994;2023-06-05T14:27:12;14.07;;;7.10;;
75628;SDS011;64213;46.452;16.994;2023-06-05T14:34:25;14.68;;;7.15;;
75628;SDS011;64213;46.452;16.994;2023-06-05T14:37:27;14.45;;;7.43;;
75628;SDS011;64213;46.452;16.994;2023-06-05T14:40:29;14.73;;;7.37;;
75628;SDS011;64213;46.452;16.994;2023-06-05T14:43:34;14.03;;;8.10;;
75628;SDS011;64213;46.452;16.994;2023-06-05T14:46:37;12.95;;;7.00;;
75628;SDS011;64213;46.452;16.994;2023-06-05T14:49:39;15.65;;;8.50;;
75628;SDS011;64213;46.452;16.994;2023-06-05T14:52:41;13.50;;;7.82;;
75628;SDS011;64213;46.452;16.994;2023-06-05T14:55:44;15.50;;;8.00;;
75628;SDS011;64213;46.452;16.994;2023-06-05T14:58:47;12.20;;;7.20;;
75628;SDS011;64213;46.452;16.994;2023-06-05T15:01:50;13.85;;;7.75;;
75628;SDS011;64213;46.452;16.994;2023-06-05T15:04:52;13.20;;;7.43;;
75628;SDS011;64213;46.452;16.994;2023-06-05T15:07:55;12.23;;;6.85;;
75628;SDS011;64213;46.452;16.994;2023-06-05T15:10:57;15.38;;;7.97;;
75628;SDS011;64213;46.452;16.994;2023-06-05T15:14:00;12.30;;;6.37;;
75628;SDS011;64213;46.452;16.994;2023-06-05T15:17:02;13.88;;;8.07;;
75628;SDS011;64213;46.452;16.994;2023-06-05T15:20:05;12.07;;;6.18;;
75628;SDS011;64213;46.452;16.994;2023-06-05T15:23:08;12.30;;;6.65;;
75628;SDS011;64213;46.452;16.994;2023-06-05T15:26:17;13.55;;;7.15;;
75628;SDS011;64213;46.452;16.994;2023-06-05T15:29:19;13.27;;;7.27;;
75628;SDS011;64213;46.452;16.994;2023-06-05T15:32:22;13.57;;;6.97;;
75628;SDS011;64213;46.452;16.994;2023-06-05T15:35:24;11.93;;;6.40;;
75628;SDS011;64213;46.452;16.994;2023-06-05T15:38:29;11.18;;;6.57;;
75628;SDS011;64213;46.452;16.994;2023-06-05T15:41:31;11.63;;;6.45;;
75628;SDS011;64213;46.452;16.994;2023-06-05T15:44:37;10.87;;;5.70;;
75628;SDS011;64213;46.452;16.994;2023-06-05T15:47:42;11.23;;;5.70;;
75628;SDS011;64213;46.452;16.994;2023-06-05T15:50:45;13.38;;;6.47;;
75628;SDS011;64213;46.452;16.994;2023-06-05T15:53:47;11.25;;;5.55;;
75628;SDS011;64213;46.452;16.994;2023-06-05T15:57:08;11.93;;;6.35;;
75628;SDS011;64213;46.452;16.994;2023-06-05T16:00:11;12.17;;;5.93;;
75628;SDS011;64213;46.452;16.994;2023-06-05T16:03:13;10.63;;;5.40;;
75628;SDS011;64213;46.452;16.994;2023-06-05T16:06:17;11.73;;;5.70;;
75628;SDS011;64213;46.452;16.994;2023-06-05T16:09:20;12.37;;;5.90;;
75628;SDS011;64213;46.452;16.994;2023-06-05T16:12:23;10.43;;;5.62;;
75628;SDS011;64213;46.452;16.994;2023-06-05T16:19:00;13.10;;;5.82;;
75628;SDS011;64213;46.452;16.994;2023-06-05T16:22:04;11.38;;;6.07;;
75628;SDS011;64213;46.452;16.994;2023-06-05T16:25:07;13.18;;;6.60;;
75628;SDS011;64213;46.452;16.994;2023-06-05T16:28:09;11.18;;;5.40;;
75628;SDS011;64213;46.452;16.994;2023-06-05T16:31:11;10.23;;;5.13;;
75628;SDS011;64213;46.452;16.994;2023-06-05T16:34:16;10.30;;;5.15;;
75628;SDS011;64213;46.452;16.994;2023-06-05T16:37:19;10.93;;;5.43;;
75628;SDS011;64213;46.452;16.994;2023-06-05T16:40:21;11.90;;;6.05;;
75628;SDS011;64213;46.452;16.994;2023-06-05T16:43:23;12.48;;;6.32;;
75628;SDS011;64213;46.452;16.994;2023-06-05T16:46:26;12.20;;;5.90;;
75628;SDS011;64213;46.452;16.994;2023-06-05T16:49:28;11.65;;;5.72;;
75628;SDS011;64213;46.452;16.994;2023-06-05T16:52:31;11.38;;;6.37;;
75628;SDS011;64213;46.452;16.994;2023-06-05T16:55:33;12.65;;;5.70;;
75628;SDS011;64213;46.452;16.994;2023-06-05T16:58:36;11.25;;;5.68;;
75628;SDS011;64213;46.452;16.994;2023-06-05T17:01:39;11.63;;;5.53;;
75628;SDS011;64213;46.452;16.994;2023-06-05T17:04:42;11.63;;;5.62;;
75628;SDS011;64213;46.452;16.994;2023-06-05T17:07:45;12.60;;;6.47;;
75628;SDS011;64213;46.452;16.994;2023-06-05T17:10:49;13.00;;;6.00;;
75628;SDS011;64213;46.452;16.994;2023-06-05T17:13:51;12.88;;;7.40;;
75628;SDS011;64213;46.452;16.994;2023-06-05T17:16:54;19.30;;;10.97;;
75628;SDS011;64213;46.452;16.994;2023-06-05T17:19:56;12.18;;;6.15;;
75628;SDS011;64213;46.452;16.994;2023-06-05T17:22:59;12.88;;;7.05;;
75628;SDS011;64213;46.452;16.994;2023-06-05T17:26:01;14.98;;;6.45;;
75628;SDS011;64213;46.452;16.994;2023-06-05T17:29:04;12.98;;;6.53;;
75628;SDS011;64213;46.452;16.994;2023-06-05T17:32:07;13.23;;;5.80;;
75628;SDS011;64213;46.452;16.994;2023-06-05T17:35:11;12.20;;;6.37;;
75628;SDS011;64213;46.452;16.994;2023-06-05T17:38:14;13.90;;;7.12;;
75628;SDS011;64213;46.452;16.994;2023-06-05T17:41:17;12.88;;;6.10;;
75628;SDS011;64213;46.452;16.994;2023-06-05T17:44:20;11.70;;;6.45;;
75628;SDS011;64213;46.452;16.994;2023-06-05T17:47:24;12.70;;;6.07;;
75628;SDS011;64213;46.452;16.994;2023-06-05T17:50:27;11.05;;;5.55;;
75628;SDS011;64213;46.452;16.994;2023-06-05T17:53:30;15.00;;;6.57;;
75628;SDS011;64213;46.452;16.994;2023-06-05T17:56:34;12.73;;;6.28;;
75628;SDS011;64213;46.452;16.994;2023-06-05T17:59:38;14.80;;;6.47;;
75628;SDS011;64213;46.452;16.994;2023-06-05T18:02:42;13.10;;;5.87;;
75628;SDS011;64213;46.452;16.994;2023-06-05T18:05:52;13.93;;;6.30;;
75628;SDS011;64213;46.452;16.994;2023-06-05T18:08:57;12.20;;;6.00;;
75628;SDS011;64213;46.452;16.994;2023-06-05T18:12:02;13.50;;;5.47;;
75628;SDS011;64213;46.452;16.994;2023-06-05T18:15:06;13.40;;;6.35;;
75628;SDS011;64213;46.452;16.994;2023-06-05T18:18:11;12.17;;;5.87;;
75628;SDS011;64213;46.452;16.994;2023-06-05T18:21:16;14.13;;;6.50;;
75628;SDS011;64213;46.452;16.994;2023-06-05T18:24:19;13.20;;;6.90;;
75628;SDS011;64213;46.452;16.994;2023-06-05T18:27:22;14.27;;;6.70;;
75628;SDS011;64213;46.452;16.994;2023-06-05T18:30:26;12.93;;;6.80;;
75628;SDS011;64213;46.452;16.994;2023-06-05T18:33:30;16.50;;;6.87;;
75628;SDS011;64213;46.452;16.994;2023-06-05T18:36:35;14.93;;;7.50;;
75628;SDS011;64213;46.452;16.994;2023-06-05T18:39:39;15.00;;;7.85;;
75628;SDS011;64213;46.452;16.994;2023-06-05T18:42:42;13.27;;;7.05;;
75628;SDS011;64213;46.452;16.994;2023-06-05T18:45:45;14.10;;;8.13;;
75628;SDS011;64213;46.452;16.994;2023-06-05T18:48:48;18.37;;;8.93;;
75628;SDS011;64213;46.452;16.994;2023-06-05T18:51:51;19.02;;;9.20;;
75628;SDS011;64213;46.452;16.994;2023-06-05T18:54:57;19.35;;;9.75;;
75628;SDS011;64213;46.452;16.994;2023-06-05T18:58:00;20.20;;;9.90;;
75628;SDS011;64213;46.452;16.994;2023-06-05T19:01:03;17.58;;;8.80;;
75628;SDS011;64213;46.452;16.994;2023-06-05T19:04:06;18.33;;;9.20;;
75628;SDS011;64213;46.452;16.994;2023-06-05T19:07:10;17.15;;;9.10;;
75628;SDS011;64213;46.452;16.994;2023-06-05T19:10:13;17.30;;;10.00;;
75628;SDS011;64213;46.452;16.994;2023-06-05T19:13:16;16.58;;;8.95;;
75628;SDS011;64213;46.452;16.994;2023-06-05T19:16:19;16.17;;;9.35;;
75628;SDS011;64213;46.452;16.994;2023-06-05T19:19:22;15.60;;;8.53;;
75628;SDS011;64213;46.452;16.994;2023-06-05T19:22:26;17.17;;;8.95;;
75628;SDS011;64213;46.452;16.994;2023-06-05T19:25:29;17.92;;;9.25;;